createdAt,value
2019-01-19T00:01:24.866Z,83.50
2019-01-19T00:04:50.902Z,83.40
2019-01-19T00:07:55.252Z,83.50
2019-01-19T00:11:06.681Z,83.50
2019-01-19T00:13:55.657Z,83.60
2019-01-19T00:17:09.636Z,83.30
2019-01-19T00:20:07.811Z,83.80
2019-01-19T00:22:56.879Z,83.70
2019-01-19T00:25:57.337Z,82.90
2019-01-19T00:28:49.347Z,83.50
2019-01-19T00:32:10.949Z,83.50
2019-01-19T00:35:02.405Z,83.80
2019-01-19T00:37:51.181Z,83.70
2019-01-19T00:40:52.758Z,83.60
2019-01-19T00:43:39.502Z,83.60
2019-01-19T00:46:46.735Z,83.80
2019-01-19T00:49:33.172Z,83.50
2019-01-19T00:52:34.190Z,83.40
2019-01-19T00:55:25.900Z,83.50
2019-01-19T00:58:27.075Z,83.50
2019-01-19T01:01:18.620Z,83.30
2019-01-19T01:04:07.943Z,83.40
2019-01-19T01:07:20.124Z,82.90
2019-01-19T01:10:21.122Z,82.50
2019-01-19T01:13:15.734Z,82.00
2019-01-19T01:16:12.969Z,82.20
2019-01-19T01:19:13.303Z,82.40
2019-01-19T01:22:17.549Z,82.10
2019-01-19T01:25:09.147Z,82.70
2019-01-19T01:28:00.966Z,82.40
2019-01-19T01:30:55.836Z,82.30
2019-01-19T01:33:54.186Z,82.10
2019-01-19T01:37:01.219Z,82.00
2019-01-19T01:39:50.067Z,81.90
2019-01-19T01:42:48.244Z,82.10
2019-01-19T01:46:00.189Z,82.10
2019-01-19T01:49:00.759Z,81.60
2019-01-19T01:51:55.609Z,81.30
2019-01-19T01:54:50.241Z,81.50
2019-01-19T01:57:35.554Z,81.70
2019-01-19T02:00:33.601Z,80.60
2019-01-19T02:03:43.958Z,80.70
2019-01-19T02:06:38.852Z,81.30
2019-01-19T02:09:27.504Z,80.80
2019-01-19T02:12:22.370Z,81.00
2019-01-19T02:15:20.871Z,81.00
2019-01-19T02:18:15.126Z,80.60
2019-01-19T02:21:06.697Z,80.50
2019-01-19T02:24:18.367Z,80.40
2019-01-19T02:27:15.641Z,81.00
2019-01-19T02:30:25.528Z,80.70
2019-01-19T02:33:19.906Z,80.80
2019-01-19T02:36:28.003Z,80.70
2019-01-19T02:39:23.493Z,80.90
2019-01-19T02:42:44.126Z,79.80
2019-01-19T02:45:35.794Z,79.60
2019-01-19T02:48:36.433Z,80.00
2019-01-19T02:51:46.626Z,79.90
2019-01-19T02:54:41.104Z,79.80
2019-01-19T02:57:29.964Z,79.80
2019-01-19T03:00:21.426Z,79.20
2019-01-19T03:03:10.318Z,79.30
2019-01-19T03:06:02.330Z,79.70
2019-01-19T03:08:54.141Z,79.60
2019-01-19T03:12:12.870Z,79.60
2019-01-19T03:15:34.102Z,79.70
2019-01-19T03:18:27.929Z,80.00
2019-01-19T03:21:25.084Z,79.90
2019-01-19T03:24:13.878Z,79.90
2019-01-19T03:27:15.067Z,80.10
2019-01-19T03:30:20.781Z,80.20
2019-01-19T03:33:18.084Z,80.20
2019-01-19T03:36:22.508Z,80.30
2019-01-19T03:39:23.793Z,80.30
2019-01-19T03:42:12.243Z,80.30
2019-01-19T03:45:18.053Z,80.40
2019-01-19T03:48:42.032Z,80.20
2019-01-19T03:51:33.632Z,80.40
2019-01-19T03:54:28.964Z,80.40
2019-01-19T03:57:26.944Z,80.60
2019-01-19T04:00:21.484Z,80.80
2019-01-19T04:03:10.476Z,80.10
2019-01-19T04:06:12.737Z,80.00
2019-01-19T04:09:11.342Z,80.80
2019-01-19T04:12:35.504Z,80.90
2019-01-19T04:15:45.255Z,80.90
2019-01-19T04:18:51.766Z,81.00
2019-01-19T04:21:43.689Z,80.80
2019-01-19T04:24:32.542Z,80.60
2019-01-19T04:27:18.221Z,80.00
2019-01-19T04:30:07.163Z,80.00
2019-01-19T04:32:52.267Z,80.60
2019-01-19T04:35:37.653Z,80.10
2019-01-19T04:38:22.945Z,80.00
2019-01-19T04:41:07.641Z,80.30
2019-01-19T04:43:52.419Z,80.30
2019-01-19T04:46:37.751Z,80.00
2019-01-19T04:49:22.906Z,80.00
2019-01-19T04:52:08.245Z,80.60
2019-01-19T04:54:53.438Z,80.60
2019-01-19T04:57:38.592Z,80.70
2019-01-19T05:00:23.481Z,80.30
2019-01-19T05:03:08.642Z,80.60
2019-01-19T05:05:53.443Z,80.20
2019-01-19T05:08:38.518Z,80.50
2019-01-19T05:11:43.148Z,80.10
2019-01-19T05:15:01.720Z,80.30
2019-01-19T05:17:47.268Z,79.90
2019-01-19T05:20:32.391Z,80.50
2019-01-19T05:23:17.437Z,80.30
2019-01-19T05:26:02.720Z,79.80
2019-01-19T05:28:48.167Z,80.10
2019-01-19T05:31:33.410Z,80.10
2019-01-19T05:34:18.593Z,80.10
2019-01-19T05:37:03.385Z,80.00
2019-01-19T05:39:48.233Z,79.50
2019-01-19T05:42:33.545Z,79.80
2019-01-19T05:45:18.213Z,79.60
2019-01-19T05:48:02.929Z,79.80
2019-01-19T05:50:47.708Z,79.50
2019-01-19T05:53:33.409Z,80.00
2019-01-19T05:56:18.097Z,80.10
2019-01-19T05:59:03.346Z,79.50
2019-01-19T06:01:48.810Z,80.00
2019-01-19T06:04:33.912Z,80.40
2019-01-19T06:07:18.916Z,80.60
2019-01-19T06:10:08.038Z,80.90
2019-01-19T06:12:52.968Z,81.20
2019-01-19T06:15:38.534Z,80.80
2019-01-19T06:18:23.752Z,80.90
2019-01-19T06:21:09.488Z,80.80
2019-01-19T06:23:54.595Z,80.60
2019-01-19T06:26:39.860Z,80.90
2019-01-19T06:29:25.354Z,80.30
2019-01-19T06:32:10.303Z,80.60
2019-01-19T06:34:55.182Z,81.10
2019-01-19T06:37:40.494Z,81.20
2019-01-19T06:40:25.977Z,80.80
2019-01-19T06:43:10.995Z,80.90
2019-01-19T06:45:56.275Z,81.00
2019-01-19T06:48:41.558Z,81.40
2019-01-19T06:51:26.252Z,81.40
2019-01-19T06:54:12.348Z,81.70
2019-01-19T06:56:57.451Z,81.80
2019-01-19T06:59:42.728Z,81.50
2019-01-19T07:02:27.456Z,82.00
2019-01-19T07:05:12.679Z,81.50
2019-01-19T07:07:58.066Z,81.50
2019-01-19T07:10:43.262Z,81.70
2019-01-19T07:13:28.236Z,81.70
2019-01-19T07:16:13.431Z,81.50
2019-01-19T07:18:58.199Z,81.20
2019-01-19T07:21:42.909Z,81.80
2019-01-19T07:24:28.247Z,81.00
2019-01-19T07:27:13.404Z,81.40
2019-01-19T07:29:58.122Z,81.40
2019-01-19T07:32:45.479Z,81.60
2019-01-19T07:35:30.421Z,81.80
2019-01-19T07:38:15.641Z,81.60
2019-01-19T07:41:00.857Z,81.10
2019-01-19T07:43:45.977Z,81.20
2019-01-19T07:46:31.822Z,80.90
2019-01-19T07:49:16.787Z,81.70
2019-01-19T07:52:01.854Z,81.50
2019-01-19T07:54:47.130Z,81.40
2019-01-19T07:57:32.295Z,81.50
2019-01-19T08:00:21.814Z,81.80
2019-01-19T08:03:06.904Z,81.80
2019-01-19T08:05:52.811Z,81.60
2019-01-19T08:08:38.266Z,81.20
2019-01-19T08:11:23.359Z,81.70
2019-01-19T08:14:08.707Z,81.10
2019-01-19T08:16:54.064Z,81.20
2019-01-19T08:19:39.108Z,80.40
2019-01-19T08:22:24.539Z,80.90
2019-01-19T08:25:11.423Z,80.40
2019-01-19T08:27:56.335Z,79.90
2019-01-19T08:30:41.725Z,79.70
2019-01-19T08:33:26.624Z,79.70
2019-01-19T08:36:12.477Z,79.40
2019-01-19T08:38:57.981Z,79.90
2019-01-19T08:41:43.103Z,79.60
2019-01-19T08:44:28.283Z,79.60
2019-01-19T08:47:13.619Z,79.60
2019-01-19T08:49:58.828Z,79.40
2019-01-19T08:52:43.604Z,78.90
2019-01-19T08:55:29.063Z,78.50
2019-01-19T08:58:14.040Z,78.70
2019-01-19T09:00:59.428Z,78.80
2019-01-19T09:03:44.673Z,78.90
2019-01-19T09:06:29.675Z,78.50
2019-01-19T09:09:14.460Z,78.20
2019-01-19T09:11:59.667Z,78.00
2019-01-19T09:14:45.386Z,78.00
2019-01-19T09:17:30.203Z,78.50
2019-01-19T09:20:17.009Z,77.90
2019-01-19T09:23:06.742Z,78.20
2019-01-19T09:25:51.983Z,77.60
2019-01-19T09:28:37.471Z,78.00
2019-01-19T09:31:22.667Z,78.40
2019-01-19T09:34:07.745Z,78.00
2019-01-19T09:36:54.919Z,78.00
2019-01-19T09:39:40.135Z,78.20
2019-01-19T09:42:25.061Z,78.30
2019-01-19T09:45:13.319Z,78.00
2019-01-19T09:47:58.580Z,78.50
2019-01-19T09:50:43.851Z,77.50
2019-01-19T09:53:29.039Z,77.80
2019-01-19T09:56:13.864Z,77.70
2019-01-19T09:58:58.677Z,77.70
2019-01-19T10:01:43.774Z,77.80
2019-01-19T10:04:28.564Z,77.90
2019-01-19T10:07:13.750Z,76.80
2019-01-19T10:09:59.111Z,77.00
2019-01-19T10:12:44.466Z,77.50
2019-01-19T10:15:29.560Z,77.50
2019-01-19T10:18:14.303Z,77.90
2019-01-19T10:20:59.864Z,77.70
2019-01-19T10:23:44.761Z,77.10
2019-01-19T10:26:29.860Z,77.60
2019-01-19T10:29:15.615Z,77.00
2019-01-19T10:32:00.747Z,77.60
2019-01-19T10:34:45.989Z,77.90
2019-01-19T10:37:31.197Z,77.20
2019-01-19T10:40:18.234Z,77.60
2019-01-19T10:43:03.402Z,78.60
2019-01-19T10:45:48.481Z,77.90
2019-01-19T10:48:33.504Z,77.90
2019-01-19T10:51:18.607Z,78.10
2019-01-19T10:54:03.389Z,78.30
2019-01-19T10:56:48.583Z,78.00
2019-01-19T10:59:33.827Z,77.50
2019-01-19T11:02:18.716Z,78.00
2019-01-19T11:05:08.495Z,77.70
2019-01-19T11:07:53.339Z,77.60
2019-01-19T11:10:38.624Z,77.40
2019-01-19T11:13:24.286Z,77.70
2019-01-19T11:16:09.384Z,77.60
2019-01-19T11:18:54.554Z,77.70
2019-01-19T11:21:39.603Z,78.30
2019-01-19T11:24:24.843Z,77.80
2019-01-19T11:27:10.177Z,78.10
2019-01-19T11:29:55.547Z,78.50
2019-01-19T11:32:44.405Z,78.20
2019-01-19T11:35:27.054Z,78.70
2019-01-19T11:38:12.340Z,79.30
2019-01-19T11:40:57.439Z,78.10
2019-01-19T11:43:42.366Z,78.20
2019-01-19T11:46:27.626Z,77.90
2019-01-19T11:49:12.927Z,77.60
2019-01-19T11:51:58.135Z,78.40
2019-01-19T11:54:43.557Z,78.70
2019-01-19T11:57:28.625Z,79.80
2019-01-19T12:00:19.347Z,79.30
2019-01-19T12:03:05.087Z,80.20
2019-01-19T12:05:50.498Z,79.70
2019-01-19T12:08:55.612Z,79.90
2019-01-19T12:11:40.700Z,80.30
2019-01-19T12:14:25.822Z,79.80
2019-01-19T12:17:10.712Z,80.00
2019-01-19T12:19:55.922Z,79.40
2019-01-19T12:22:41.366Z,79.50
2019-01-19T12:25:26.518Z,79.00
2019-01-19T12:28:11.423Z,79.00
2019-01-19T12:30:56.661Z,79.10
2019-01-19T12:33:41.926Z,79.10
2019-01-19T12:36:27.163Z,79.00
2019-01-19T12:39:12.063Z,78.40
2019-01-19T12:41:57.176Z,78.40
2019-01-19T12:44:42.021Z,78.10
2019-01-19T12:47:27.314Z,78.20
2019-01-19T12:50:16.144Z,77.90
2019-01-19T12:53:01.248Z,77.80
2019-01-19T12:55:46.400Z,78.20
2019-01-19T12:58:31.712Z,78.40
2019-01-19T13:01:16.914Z,78.20
2019-01-19T13:04:02.116Z,78.50
2019-01-19T13:06:47.987Z,78.70
2019-01-19T13:09:32.793Z,78.00
2019-01-19T13:12:21.930Z,78.40
2019-01-19T13:15:22.433Z,78.90
2019-01-19T13:18:35.593Z,78.80
2019-01-19T13:21:38.938Z,79.50
2019-01-19T13:24:27.978Z,79.40
2019-01-19T13:27:29.171Z,79.50
2019-01-19T13:30:27.246Z,79.30
2019-01-19T13:33:28.346Z,79.30
2019-01-19T13:36:27.335Z,79.30
2019-01-19T13:39:18.964Z,79.60
2019-01-19T13:42:23.020Z,79.40
2019-01-19T13:45:29.722Z,79.50
2019-01-19T13:48:36.702Z,79.40
2019-01-19T13:51:31.301Z,79.60
2019-01-19T13:54:25.787Z,79.20
2019-01-19T13:57:23.966Z,79.40
2019-01-19T14:00:29.619Z,79.80
2019-01-19T14:03:34.545Z,79.80
2019-01-19T14:06:26.468Z,80.40
2019-01-19T14:09:18.113Z,79.90
2019-01-19T14:12:24.313Z,79.70
2019-01-19T14:15:18.678Z,79.80
2019-01-19T14:18:19.643Z,79.10
2019-01-19T14:21:23.459Z,79.30
2019-01-19T14:24:18.250Z,80.00
2019-01-19T14:27:12.895Z,79.40
2019-01-19T14:30:22.604Z,80.20
2019-01-19T14:33:32.574Z,80.80
2019-01-19T14:36:45.270Z,80.10
2019-01-19T14:39:48.386Z,80.50
2019-01-19T14:42:48.856Z,80.20
2019-01-19T14:46:00.664Z,81.00
2019-01-19T14:49:11.057Z,80.60
2019-01-19T14:51:59.960Z,81.30
2019-01-19T14:54:57.583Z,81.10
2019-01-19T14:57:52.379Z,81.20
2019-01-19T15:00:44.302Z,81.20
2019-01-19T15:03:36.186Z,81.50
2019-01-19T15:06:34.313Z,81.10
2019-01-19T15:09:43.902Z,81.40
2019-01-19T15:12:44.851Z,81.30
2019-01-19T15:15:39.724Z,81.40
2019-01-19T15:18:31.633Z,81.20
2019-01-19T15:21:41.439Z,80.80
2019-01-19T15:24:36.419Z,80.40
2019-01-19T15:27:44.869Z,80.50
2019-01-19T15:30:45.931Z,81.20
2019-01-19T15:33:59.234Z,80.10
2019-01-19T15:36:59.997Z,81.20
2019-01-19T15:40:15.902Z,81.00
2019-01-19T15:43:09.876Z,81.50
2019-01-19T15:46:16.823Z,81.60
2019-01-19T15:49:33.400Z,81.90
2019-01-19T15:52:24.770Z,82.10
2019-01-19T15:55:19.857Z,82.10
2019-01-19T15:58:08.609Z,81.80
2019-01-19T16:01:21.203Z,81.80
2019-01-19T16:04:24.664Z,81.90
2019-01-19T16:07:46.761Z,82.10
2019-01-19T16:11:11.887Z,81.90
2019-01-19T16:14:24.723Z,81.60
2019-01-19T16:17:16.161Z,82.10
2019-01-19T16:20:28.251Z,82.00
2019-01-19T16:23:23.109Z,82.20
2019-01-19T16:26:20.835Z,81.60
2019-01-19T16:29:20.786Z,82.60
2019-01-19T16:32:24.755Z,82.30
2019-01-19T16:35:16.231Z,82.50
2019-01-19T16:38:08.098Z,82.60
2019-01-19T16:40:56.958Z,82.90
2019-01-19T16:43:49.139Z,82.50
2019-01-19T16:46:44.787Z,82.40
2019-01-19T16:49:49.810Z,82.40
2019-01-19T16:52:44.844Z,82.30
2019-01-19T16:55:39.750Z,81.90
2019-01-19T16:58:55.374Z,81.80
2019-01-19T17:02:02.150Z,81.60
2019-01-19T17:04:59.607Z,81.60
2019-01-19T17:08:07.147Z,81.20
2019-01-19T17:10:58.754Z,81.60
2019-01-19T17:13:50.526Z,81.40
2019-01-19T17:16:54.252Z,81.00
2019-01-19T17:19:46.257Z,80.50
2019-01-19T17:22:35.249Z,80.70
2019-01-19T17:25:23.994Z,80.50
2019-01-19T17:28:15.062Z,79.60
2019-01-19T17:31:27.941Z,80.20
2019-01-19T17:34:39.054Z,80.30
2019-01-19T17:37:31.547Z,80.40
2019-01-19T17:40:46.314Z,80.40
2019-01-19T17:43:34.922Z,79.90
2019-01-19T17:46:23.672Z,79.80
2019-01-19T17:49:12.414Z,79.60
2019-01-19T17:52:10.368Z,79.00
2019-01-19T17:55:23.626Z,78.10
2019-01-19T17:58:18.040Z,78.80
2019-01-19T18:01:13.735Z,78.40
2019-01-19T18:04:25.650Z,77.70
2019-01-19T18:07:20.418Z,77.80
2019-01-19T18:10:39.202Z,77.80
2019-01-19T18:13:33.403Z,78.30
2019-01-19T18:16:57.193Z,79.50
2019-01-19T18:19:55.039Z,79.80
2019-01-19T18:22:47.033Z,79.60
2019-01-19T18:25:36.024Z,79.00
2019-01-19T18:28:28.579Z,78.10
2019-01-19T18:31:36.265Z,78.90
2019-01-19T18:34:31.427Z,78.80
2019-01-19T18:37:20.420Z,78.60
2019-01-19T18:40:26.604Z,78.40
2019-01-19T18:43:33.183Z,78.70
2019-01-19T18:46:30.439Z,79.00
2019-01-19T18:49:27.653Z,79.00
2019-01-19T18:52:22.515Z,78.90
2019-01-19T18:55:14.428Z,79.00
2019-01-19T18:58:18.229Z,79.50
2019-01-19T19:01:34.149Z,79.40
2019-01-19T19:04:25.780Z,79.00
2019-01-19T19:07:35.518Z,79.40
2019-01-19T19:10:39.695Z,79.00
2019-01-19T19:13:28.578Z,79.90
2019-01-19T19:16:20.639Z,79.60
2019-01-19T19:19:18.317Z,79.40
2019-01-19T19:22:24.928Z,78.40
2019-01-19T19:25:23.233Z,78.50
2019-01-19T19:28:28.847Z,78.20
2019-01-19T19:31:42.871Z,78.30
2019-01-19T19:34:40.261Z,77.60
2019-01-19T19:37:45.690Z,77.40
2019-01-19T19:40:59.083Z,77.30
2019-01-19T19:44:03.048Z,76.40
2019-01-19T19:47:07.017Z,76.40
2019-01-19T19:50:12.660Z,76.30
2019-01-19T19:52:57.521Z,76.40
2019-01-19T19:56:19.582Z,76.10
2019-01-19T19:59:04.579Z,76.00
2019-01-19T20:01:49.737Z,75.90
2019-01-19T20:04:34.872Z,75.70
2019-01-19T20:07:19.819Z,75.80
2019-01-19T20:10:09.459Z,75.80
2019-01-19T20:12:54.827Z,75.90
2019-01-19T20:15:39.734Z,75.70
2019-01-19T20:18:24.560Z,75.60
2019-01-19T20:21:09.312Z,75.90
2019-01-19T20:23:54.566Z,76.40
2019-01-19T20:26:39.928Z,76.20
2019-01-19T20:29:25.019Z,76.40
2019-01-19T20:32:10.909Z,76.90
2019-01-19T20:34:56.117Z,76.40
2019-01-19T20:37:41.385Z,76.00
2019-01-19T20:40:26.400Z,75.40
2019-01-19T20:43:11.683Z,76.30
2019-01-19T20:45:57.007Z,76.00
2019-01-19T20:48:42.805Z,76.60
2019-01-19T20:51:27.801Z,76.30
2019-01-19T20:54:13.147Z,77.00
2019-01-19T20:56:58.178Z,76.50
2019-01-19T20:59:43.346Z,76.60
2019-01-19T21:02:28.192Z,76.50
2019-01-19T21:05:13.354Z,77.00
2019-01-19T21:07:58.617Z,76.40
2019-01-19T21:10:43.372Z,76.70
2019-01-19T21:13:28.366Z,77.00
2019-01-19T21:16:13.373Z,76.80
2019-01-19T21:18:58.331Z,77.50
2019-01-19T21:21:43.577Z,77.40
2019-01-19T21:24:28.452Z,77.30
2019-01-19T21:27:13.652Z,77.10
2019-01-19T21:29:58.853Z,77.10
2019-01-19T21:32:44.162Z,77.30
2019-01-19T21:35:29.376Z,77.30
2019-01-19T21:38:14.756Z,77.20
2019-01-19T21:40:59.413Z,77.30
2019-01-19T21:43:44.158Z,77.80
2019-01-19T21:46:29.286Z,77.40
2019-01-19T21:49:14.513Z,77.70
2019-01-19T21:51:59.862Z,77.20
2019-01-19T21:54:45.115Z,77.80
2019-01-19T21:57:30.752Z,78.00
2019-01-19T22:00:20.120Z,77.30
2019-01-19T22:03:05.123Z,78.20
2019-01-19T22:05:51.056Z,78.30
2019-01-19T22:08:36.379Z,77.80
2019-01-19T22:11:21.836Z,77.70
2019-01-19T22:14:06.796Z,78.00
2019-01-19T22:16:51.803Z,77.90
2019-01-19T22:19:57.410Z,78.30
2019-01-19T22:22:42.347Z,77.40
2019-01-19T22:25:27.497Z,78.50
2019-01-19T22:28:12.767Z,78.00
2019-01-19T22:30:57.873Z,78.90
2019-01-19T22:33:42.785Z,78.80
2019-01-19T22:36:27.879Z,78.60
2019-01-19T22:39:13.873Z,77.90
2019-01-19T22:41:59.025Z,77.70
2019-01-19T22:44:43.911Z,77.50
2019-01-19T22:47:29.150Z,78.20
2019-01-19T22:50:15.650Z,77.90
2019-01-19T22:53:00.948Z,78.30
2019-01-19T22:55:46.030Z,77.50
2019-01-19T22:58:30.732Z,77.40
2019-01-19T23:01:20.442Z,77.50
2019-01-19T23:04:05.504Z,78.00
2019-01-19T23:06:50.606Z,77.50
2019-01-19T23:09:36.030Z,77.00
2019-01-19T23:12:21.113Z,77.40
2019-01-19T23:15:08.546Z,77.60
2019-01-19T23:17:53.719Z,78.20
2019-01-19T23:20:39.553Z,77.60
2019-01-19T23:23:25.093Z,79.00
2019-01-19T23:26:10.927Z,77.50
2019-01-19T23:28:56.171Z,77.70
2019-01-19T23:31:41.121Z,76.90
2019-01-19T23:34:26.691Z,77.50
2019-01-19T23:37:12.039Z,77.90
2019-01-19T23:39:57.420Z,77.90
2019-01-19T23:42:47.084Z,77.90
2019-01-19T23:45:29.863Z,77.50
2019-01-19T23:48:14.849Z,77.70
2019-01-19T23:51:00.135Z,78.00
2019-01-19T23:53:45.026Z,77.30
2019-01-19T23:56:30.352Z,77.50
2019-01-19T23:59:15.228Z,77.80
